createdAt,value
2022-10-29T00:02:01.274Z,88.52
2022-10-29T00:04:29.163Z,88.63
2022-10-29T00:06:58.528Z,88.32
2022-10-29T00:09:26.396Z,87.88
2022-10-29T00:11:54.208Z,88.31
2022-10-29T00:14:22.381Z,88.49
2022-10-29T00:16:50.292Z,88.42
2022-10-29T00:19:18.172Z,88.47
2022-10-29T00:21:46.108Z,88.97
2022-10-29T00:24:15.406Z,89.31
2022-10-29T00:26:43.426Z,89.15
2022-10-29T00:29:11.524Z,89.47
2022-10-29T00:31:39.412Z,89.43
2022-10-29T00:34:07.517Z,89.78
2022-10-29T00:36:35.517Z,90.89
2022-10-29T00:39:03.372Z,90.81
2022-10-29T00:41:32.572Z,91.00
2022-10-29T00:44:26.894Z,91.35
2022-10-29T00:47:02.626Z,91.34
2022-10-29T00:49:32.181Z,91.93
2022-10-29T00:52:02.397Z,91.78
2022-10-29T00:54:33.604Z,92.42
2022-10-29T00:57:08.966Z,92.62
2022-10-29T00:59:37.174Z,92.59
2022-10-29T01:02:05.234Z,92.76
2022-10-29T01:04:33.258Z,93.17
2022-10-29T01:07:01.431Z,93.18
2022-10-29T01:09:29.253Z,93.74
2022-10-29T01:12:11.287Z,93.98
2022-10-29T01:14:51.563Z,94.68
2022-10-29T01:17:28.721Z,94.29
2022-10-29T01:20:27.888Z,94.74
2022-10-29T01:23:12.587Z,95.02
2022-10-29T01:26:13.459Z,94.94
2022-10-29T01:29:00.505Z,95.18
2022-10-29T01:31:35.393Z,95.40
2022-10-29T01:34:08.223Z,95.70
2022-10-29T01:36:45.246Z,96.08
2022-10-29T01:39:21.432Z,95.95
2022-10-29T01:41:56.152Z,96.20
2022-10-29T01:44:34.220Z,96.43
2022-10-29T01:47:04.903Z,96.69
2022-10-29T01:49:39.054Z,96.46
2022-10-29T01:52:10.040Z,97.04
2022-10-29T01:54:42.261Z,97.15
2022-10-29T01:57:31.635Z,98.09
2022-10-29T02:00:03.006Z,97.83
2022-10-29T02:02:48.416Z,97.63
2022-10-29T02:05:24.986Z,97.86
2022-10-29T02:07:57.873Z,97.84
2022-10-29T02:10:33.762Z,98.56
2022-10-29T02:13:01.789Z,98.62
2022-10-29T02:15:34.723Z,98.29
2022-10-29T02:18:06.329Z,98.49
2022-10-29T02:20:34.865Z,98.89
2022-10-29T02:23:02.749Z,99.28
2022-10-29T02:25:30.642Z,99.09
2022-10-29T02:27:58.700Z,99.09
2022-10-29T02:30:26.711Z,99.95
2022-10-29T02:32:54.822Z,100.00
2022-10-29T02:35:24.765Z,100.00
2022-10-29T02:37:52.993Z,100.00
2022-10-29T02:40:20.842Z,100.00
2022-10-29T02:42:48.857Z,100.00
2022-10-29T02:45:16.870Z,100.00
2022-10-29T02:47:44.702Z,100.00
2022-10-29T02:50:12.601Z,100.00
2022-10-29T02:52:42.592Z,100.00
2022-10-29T02:55:10.823Z,100.00
2022-10-29T02:57:38.799Z,100.00
2022-10-29T03:00:07.652Z,100.00
2022-10-29T03:02:35.606Z,100.00
2022-10-29T03:05:04.011Z,100.00
2022-10-29T03:07:36.344Z,100.00
2022-10-29T03:10:06.269Z,100.00
2022-10-29T03:12:34.531Z,100.00
2022-10-29T03:15:02.401Z,100.00
2022-10-29T03:17:30.554Z,99.62
2022-10-29T03:19:58.447Z,99.37
2022-10-29T03:22:26.342Z,99.59
2022-10-29T03:24:54.414Z,99.57
2022-10-29T03:27:23.717Z,99.25
2022-10-29T03:29:51.628Z,99.59
2022-10-29T03:32:19.734Z,98.82
2022-10-29T03:34:47.623Z,98.56
2022-10-29T03:37:15.520Z,98.55
2022-10-29T03:39:43.456Z,98.19
2022-10-29T03:42:11.430Z,97.78
2022-10-29T03:44:40.676Z,97.65
2022-10-29T03:47:09.109Z,97.10
2022-10-29T03:49:37.067Z,96.81
2022-10-29T03:52:05.145Z,96.60
2022-10-29T03:54:33.252Z,95.97
2022-10-29T03:57:01.158Z,96.44
2022-10-29T03:59:29.072Z,96.08
2022-10-29T04:01:58.431Z,95.79
2022-10-29T04:04:26.367Z,95.18
2022-10-29T04:06:54.197Z,95.01
2022-10-29T04:09:22.051Z,94.26
2022-10-29T04:11:49.935Z,94.32
2022-10-29T04:14:18.063Z,94.13
2022-10-29T04:16:46.067Z,94.37
2022-10-29T04:19:15.510Z,94.21
2022-10-29T04:30:08.563Z,95.77
2022-10-29T04:32:36.549Z,96.25
2022-10-29T04:35:06.710Z,95.76
2022-10-29T04:37:34.715Z,96.81
2022-10-29T04:40:02.583Z,96.43
2022-10-29T04:42:30.520Z,96.34
2022-10-29T04:44:58.496Z,96.93
2022-10-29T04:47:26.411Z,97.30
2022-10-29T04:49:54.249Z,97.04
2022-10-29T04:52:23.471Z,97.14
2022-10-29T04:54:52.591Z,96.73
2022-10-29T04:57:20.411Z,97.03
2022-10-29T04:59:48.299Z,96.21
2022-10-29T05:02:16.140Z,96.43
2022-10-29T05:04:43.981Z,95.82
2022-10-29T05:07:11.933Z,95.57
2022-10-29T05:09:41.104Z,95.10
2022-10-29T05:12:09.633Z,94.76
2022-10-29T05:14:37.671Z,94.33
2022-10-29T05:19:38.511Z,94.55
2022-10-29T05:22:06.392Z,93.78
2022-10-29T05:24:34.300Z,93.60
2022-10-29T05:27:03.780Z,93.75
2022-10-29T05:29:31.591Z,93.64
2022-10-29T05:31:59.426Z,93.35
2022-10-29T05:34:27.724Z,93.11
2022-10-29T05:36:55.621Z,93.04
2022-10-29T05:39:23.440Z,93.30
2022-10-29T05:41:51.286Z,93.65
2022-10-29T05:44:20.508Z,94.11
2022-10-29T05:46:49.750Z,94.05
2022-10-29T05:49:17.738Z,93.94
2022-10-29T05:51:45.690Z,93.64
2022-10-29T05:54:13.544Z,93.90
2022-10-29T05:56:41.459Z,93.78
2022-10-29T05:59:09.389Z,93.68
2022-10-29T06:01:38.709Z,93.94
2022-10-29T06:04:06.799Z,93.53
2022-10-29T06:06:34.761Z,93.25
2022-10-29T06:09:02.761Z,92.45
2022-10-29T06:11:30.688Z,92.42
2022-10-29T06:13:58.613Z,92.32
2022-10-29T06:16:26.441Z,92.69
2022-10-29T06:18:56.594Z,92.98
2022-10-29T06:21:24.458Z,92.95
2022-10-29T06:23:54.185Z,93.07
2022-10-29T06:26:22.862Z,92.92
2022-10-29T06:28:50.747Z,93.17
2022-10-29T06:31:18.713Z,92.98
2022-10-29T06:33:46.878Z,92.71
2022-10-29T06:36:16.153Z,92.51
2022-10-29T06:38:44.080Z,91.68
2022-10-29T06:41:12.076Z,91.81
2022-10-29T06:43:39.917Z,91.15
2022-10-29T06:46:07.793Z,91.11
2022-10-29T06:48:35.756Z,90.56
2022-10-29T06:51:03.583Z,91.37
2022-10-29T06:53:33.347Z,91.05
2022-10-29T06:56:01.344Z,91.41
2022-10-29T06:58:29.166Z,91.02
2022-10-29T07:03:25.875Z,91.39
2022-10-29T07:05:57.243Z,90.43
2022-10-29T07:08:25.140Z,90.53
2022-10-29T07:10:55.511Z,90.25
2022-10-29T07:13:23.723Z,90.55
2022-10-29T07:15:51.680Z,90.27
2022-10-29T07:18:19.748Z,90.37
2022-10-29T07:20:47.741Z,89.94
2022-10-29T07:23:15.570Z,89.81
2022-10-29T07:25:43.676Z,89.97
2022-10-29T07:28:16.229Z,90.06
2022-10-29T07:30:45.038Z,90.02
2022-10-29T07:33:12.937Z,89.80
2022-10-29T07:35:40.762Z,89.35
2022-10-29T07:38:11.297Z,89.44
2022-10-29T07:40:40.357Z,89.50
2022-10-29T07:43:08.429Z,89.78
2022-10-29T07:45:37.863Z,89.32
2022-10-29T07:48:08.725Z,89.84
2022-10-29T07:50:37.157Z,89.69
2022-10-29T07:53:06.455Z,88.96
2022-10-29T07:55:34.548Z,88.34
2022-10-29T07:58:04.137Z,88.27
2022-10-29T08:00:33.659Z,88.05
2022-10-29T08:03:03.187Z,87.75
2022-10-29T08:05:31.973Z,87.60
2022-10-29T08:08:00.456Z,86.88
2022-10-29T08:10:29.583Z,87.14
2022-10-29T08:12:59.636Z,85.89
2022-10-29T08:15:28.842Z,87.01
2022-10-29T08:17:57.514Z,87.28
2022-10-29T08:20:28.939Z,87.06
2022-10-29T08:22:56.870Z,86.40
2022-10-29T08:25:26.100Z,85.12
2022-10-29T08:28:01.413Z,84.41
2022-10-29T08:30:29.718Z,84.53
2022-10-29T08:32:58.017Z,84.14
2022-10-29T08:35:27.914Z,83.71
2022-10-29T08:37:56.010Z,82.85
2022-10-29T08:40:30.685Z,82.74
2022-10-29T08:43:47.148Z,81.93
2022-10-29T08:46:22.382Z,83.55
2022-10-29T08:48:56.209Z,82.52
2022-10-29T08:51:30.239Z,82.67
2022-10-29T08:56:51.452Z,83.27
2022-10-29T08:59:21.837Z,84.04
2022-10-29T09:01:50.089Z,84.00
2022-10-29T09:04:26.691Z,84.07
2022-10-29T09:07:21.230Z,83.53
2022-10-29T09:09:55.495Z,84.40
2022-10-29T09:12:39.230Z,84.87
2022-10-29T09:15:31.697Z,86.68
2022-10-29T09:18:13.014Z,86.98
2022-10-29T09:20:52.112Z,87.77
2022-10-29T09:23:31.600Z,86.92
2022-10-29T09:26:04.122Z,85.81
2022-10-29T09:28:45.311Z,86.25
2022-10-29T09:31:25.606Z,85.58
2022-10-29T09:33:57.805Z,85.65
2022-10-29T09:36:30.839Z,83.70
2022-10-29T09:39:03.669Z,83.42
2022-10-29T09:41:34.437Z,83.76
2022-10-29T09:44:08.669Z,82.29
2022-10-29T09:46:46.260Z,81.53
2022-10-29T09:49:30.348Z,80.73
2022-10-29T09:52:02.197Z,78.67
2022-10-29T09:54:32.666Z,76.64
2022-10-29T09:57:03.323Z,77.28
2022-10-29T09:59:35.018Z,78.34
2022-10-29T10:02:03.086Z,78.48
2022-10-29T10:04:37.234Z,78.39
2022-10-29T10:07:08.104Z,79.07
2022-10-29T10:09:54.424Z,78.18
2022-10-29T10:12:25.189Z,78.99
2022-10-29T10:15:04.661Z,80.66
2022-10-29T10:17:56.034Z,79.91
2022-10-29T10:20:37.828Z,79.50
2022-10-29T10:23:22.378Z,80.28
2022-10-29T10:25:53.168Z,79.41
2022-10-29T10:28:23.246Z,79.32
2022-10-29T10:31:13.572Z,78.77
2022-10-29T10:33:53.058Z,78.83
2022-10-29T10:36:24.614Z,78.30
2022-10-29T10:38:55.207Z,78.31
2022-10-29T10:41:28.874Z,77.99
2022-10-29T10:44:00.551Z,79.16
2022-10-29T10:46:32.679Z,79.36
2022-10-29T10:49:04.373Z,80.70
2022-10-29T10:51:34.605Z,80.48
2022-10-29T10:54:08.386Z,80.50
2022-10-29T10:56:53.189Z,80.00
2022-10-29T10:59:21.952Z,80.01
2022-10-29T11:01:52.626Z,79.48
2022-10-29T11:04:25.327Z,79.51
2022-10-29T11:06:56.354Z,80.03
2022-10-29T11:09:28.300Z,78.65
2022-10-29T11:12:02.910Z,78.81
2022-10-29T11:14:36.805Z,78.64
2022-10-29T11:17:09.476Z,79.04
2022-10-29T11:19:43.457Z,78.68
2022-10-29T11:22:19.775Z,78.86
2022-10-29T11:24:54.301Z,79.29
2022-10-29T11:27:39.329Z,78.01
2022-10-29T11:30:11.553Z,78.93
2022-10-29T11:32:54.440Z,77.55
2022-10-29T11:35:38.848Z,77.73
2022-10-29T11:38:15.079Z,77.52
2022-10-29T11:40:46.715Z,77.52
2022-10-29T11:43:19.702Z,76.42
2022-10-29T11:45:59.150Z,75.98
2022-10-29T11:48:41.947Z,76.77
2022-10-29T11:51:22.812Z,77.78
2022-10-29T11:53:59.493Z,77.08
2022-10-29T11:56:50.147Z,78.22
2022-10-29T11:59:29.335Z,77.86
2022-10-29T12:02:10.311Z,78.26
2022-10-29T12:04:44.997Z,77.56
2022-10-29T12:07:24.494Z,76.68
2022-10-29T12:10:16.977Z,76.53
2022-10-29T12:12:49.923Z,76.76
2022-10-29T12:15:25.287Z,75.67
2022-10-29T12:18:01.971Z,75.58
2022-10-29T12:20:41.372Z,74.78
2022-10-29T12:23:25.581Z,74.46
2022-10-29T12:26:02.745Z,74.00
2022-10-29T12:28:43.039Z,73.85
2022-10-29T12:31:22.905Z,73.77
2022-10-29T12:33:59.583Z,74.38
2022-10-29T12:36:35.270Z,74.19
2022-10-29T12:39:03.892Z,74.10
2022-10-29T12:41:38.179Z,74.15
2022-10-29T12:44:15.266Z,73.64
2022-10-29T12:46:54.414Z,72.91
2022-10-29T12:49:37.826Z,72.64
2022-10-29T12:52:13.260Z,73.30
2022-10-29T12:54:43.235Z,72.39
2022-10-29T12:57:29.434Z,71.45
2022-10-29T12:59:58.653Z,72.17
2022-10-29T13:02:45.137Z,71.28
2022-10-29T13:05:38.953Z,71.31
2022-10-29T13:08:37.579Z,70.61
2022-10-29T13:11:23.614Z,70.67
2022-10-29T13:13:58.884Z,69.78
2022-10-29T13:16:33.018Z,70.72
2022-10-29T13:19:20.698Z,70.58
2022-10-29T13:22:45.350Z,70.13
2022-10-29T13:25:46.330Z,71.04
2022-10-29T13:28:49.559Z,70.16
2022-10-29T13:32:02.093Z,71.30
2022-10-29T13:34:57.737Z,71.76
2022-10-29T13:37:56.407Z,71.17
2022-10-29T13:40:57.581Z,71.79
2022-10-29T13:43:25.826Z,73.49
2022-10-29T13:46:04.052Z,73.43
2022-10-29T13:48:36.052Z,74.32
2022-10-29T13:51:09.460Z,73.82
2022-10-29T13:53:44.119Z,74.28
2022-10-29T13:56:18.820Z,75.15
2022-10-29T13:58:50.301Z,75.15
2022-10-29T14:01:21.030Z,74.74
2022-10-29T14:04:00.050Z,74.16
2022-10-29T14:06:34.341Z,74.69
2022-10-29T14:09:14.620Z,75.12
2022-10-29T14:11:48.251Z,74.82
2022-10-29T14:14:25.375Z,75.07
2022-10-29T14:17:11.229Z,75.06
2022-10-29T14:19:39.194Z,76.08
2022-10-29T14:22:30.123Z,75.50
2022-10-29T14:24:58.294Z,75.64
2022-10-29T14:27:26.126Z,75.94
2022-10-29T14:29:55.627Z,75.79
2022-10-29T14:32:23.559Z,76.27
2022-10-29T14:34:52.898Z,76.41
2022-10-29T14:37:28.914Z,76.84
2022-10-29T14:39:59.606Z,77.28
2022-10-29T14:42:32.317Z,77.29
2022-10-29T14:45:04.151Z,78.38
2022-10-29T14:47:34.525Z,78.29
2022-10-29T14:50:04.423Z,79.30
2022-10-29T14:52:39.752Z,79.28
2022-10-29T14:55:09.561Z,79.08
2022-10-29T14:57:43.200Z,79.03
2022-10-29T15:00:24.843Z,78.71
2022-10-29T15:02:54.753Z,79.03
2022-10-29T15:05:26.273Z,78.72
2022-10-29T15:08:07.100Z,79.13
2022-10-29T15:10:45.916Z,79.60
2022-10-29T15:13:24.263Z,79.60
2022-10-29T15:15:55.165Z,80.44
2022-10-29T15:18:25.692Z,81.12
2022-10-29T15:20:55.083Z,81.40
2022-10-29T15:23:28.144Z,81.61
2022-10-29T15:26:04.493Z,81.92
2022-10-29T15:28:38.704Z,82.39
2022-10-29T15:31:07.167Z,82.13
2022-10-29T15:33:38.257Z,81.74
2022-10-29T15:36:07.204Z,82.60
2022-10-29T15:39:14.648Z,81.74
2022-10-29T15:41:49.343Z,82.89
2022-10-29T15:44:38.080Z,83.19
2022-10-29T15:47:27.381Z,82.81
2022-10-29T15:49:55.391Z,83.20
2022-10-29T15:52:28.185Z,83.65
2022-10-29T15:54:56.165Z,83.61
2022-10-29T15:57:25.591Z,83.94
2022-10-29T15:59:57.436Z,84.27
2022-10-29T16:02:26.574Z,84.89
2022-10-29T16:04:54.485Z,85.25
2022-10-29T16:07:22.705Z,85.58
2022-10-29T16:09:53.394Z,85.50
2022-10-29T16:12:21.284Z,85.81
2022-10-29T16:14:50.746Z,85.98
2022-10-29T16:17:22.124Z,86.35
2022-10-29T16:19:49.999Z,86.68
2022-10-29T16:22:22.293Z,86.89
2022-10-29T16:24:50.460Z,87.14
2022-10-29T16:27:19.605Z,87.38
2022-10-29T16:29:49.728Z,88.27
2022-10-29T16:32:22.799Z,88.72
2022-10-29T16:34:52.217Z,89.04
2022-10-29T16:37:21.429Z,89.87
2022-10-29T16:39:49.342Z,89.83
2022-10-29T16:42:31.763Z,90.44
2022-10-29T16:44:59.840Z,91.10
2022-10-29T16:47:29.446Z,91.06
2022-10-29T16:49:57.420Z,91.08
2022-10-29T16:52:29.484Z,90.75
2022-10-29T16:54:58.085Z,92.24
2022-10-29T16:57:26.060Z,93.14
2022-10-29T16:59:53.902Z,93.00
2022-10-29T17:02:21.975Z,92.90
2022-10-29T17:04:51.407Z,92.78
2022-10-29T17:07:20.074Z,92.86
2022-10-29T17:09:48.116Z,92.77
2022-10-29T17:12:16.266Z,93.24
2022-10-29T17:14:44.209Z,94.08
2022-10-29T17:17:12.323Z,94.96
2022-10-29T17:19:40.320Z,95.98
2022-10-29T17:22:14.374Z,96.62
2022-10-29T17:24:42.479Z,97.25
2022-10-29T17:27:10.767Z,97.44
2022-10-29T17:29:39.066Z,97.45
2022-10-29T17:32:08.834Z,97.33
2022-10-29T17:34:37.075Z,97.67
2022-10-29T17:37:05.304Z,97.74
2022-10-29T17:39:34.690Z,97.74
2022-10-29T17:42:02.857Z,98.05
2022-10-29T17:44:32.195Z,98.36
2022-10-29T17:47:00.167Z,98.41
2022-10-29T17:49:28.053Z,98.55
2022-10-29T17:51:56.072Z,98.48
2022-10-29T17:54:24.060Z,98.70
2022-10-29T17:56:53.301Z,98.73
2022-10-29T17:59:21.424Z,99.02
2022-10-29T18:01:49.451Z,99.26
2022-10-29T18:04:17.429Z,99.38
2022-10-29T18:06:45.471Z,99.75
2022-10-29T18:09:17.083Z,99.23
2022-10-29T18:11:49.671Z,99.41
2022-10-29T18:14:19.012Z,99.79
2022-10-29T18:16:46.930Z,99.62
2022-10-29T18:19:15.139Z,99.54
2022-10-29T18:21:42.990Z,99.38
2022-10-29T18:24:11.148Z,99.46
2022-10-29T18:26:39.146Z,100.00
2022-10-29T18:29:09.319Z,100.00
2022-10-29T18:31:42.353Z,100.00
2022-10-29T18:34:10.845Z,99.89
2022-10-29T18:36:40.859Z,100.00
2022-10-29T18:39:09.115Z,100.00
2022-10-29T18:41:37.229Z,100.00
2022-10-29T18:44:05.441Z,100.00
2022-10-29T18:46:34.010Z,100.00
2022-10-29T18:49:03.355Z,100.00
2022-10-29T18:51:32.821Z,100.00
2022-10-29T18:54:01.596Z,100.00
2022-10-29T18:56:30.600Z,100.00
2022-10-29T18:58:59.455Z,100.00
2022-10-29T19:01:30.421Z,100.00
2022-10-29T19:04:00.656Z,100.00
2022-10-29T19:06:32.036Z,100.00
2022-10-29T19:09:01.137Z,100.00
2022-10-29T19:11:29.114Z,100.00
2022-10-29T19:13:59.013Z,100.00
2022-10-29T19:16:28.171Z,100.00
2022-10-29T19:18:57.247Z,100.00
2022-10-29T19:21:25.915Z,100.00
2022-10-29T19:23:56.790Z,100.00
2022-10-29T19:26:26.136Z,100.00
2022-10-29T19:28:54.741Z,100.00
2022-10-29T19:31:24.405Z,100.00
2022-10-29T19:33:53.738Z,100.00
2022-10-29T19:36:22.508Z,100.00
2022-10-29T19:38:50.590Z,100.00
2022-10-29T19:41:20.656Z,100.00
2022-10-29T19:43:48.907Z,100.00
2022-10-29T19:46:18.314Z,100.00
2022-10-29T19:48:50.873Z,100.00
2022-10-29T19:51:19.301Z,100.00
2022-10-29T19:53:48.703Z,100.00
2022-10-29T19:56:19.370Z,100.00
2022-10-29T19:58:47.622Z,100.00
2022-10-29T20:01:18.448Z,100.00
2022-10-29T20:03:47.522Z,100.00
2022-10-29T20:06:16.522Z,100.00
2022-10-29T20:08:44.471Z,100.00
2022-10-29T20:11:12.378Z,100.00
2022-10-29T20:13:41.584Z,100.00
2022-10-29T20:16:11.196Z,100.00
2022-10-29T20:18:39.278Z,100.00
2022-10-29T20:21:08.049Z,100.00
2022-10-29T20:23:36.536Z,100.00
2022-10-29T20:26:05.059Z,100.00
2022-10-29T20:28:33.150Z,100.00
2022-10-29T20:31:27.812Z,100.00
2022-10-29T20:33:59.178Z,100.00
2022-10-29T20:36:29.784Z,100.00
2022-10-29T20:38:58.060Z,100.00
2022-10-29T20:41:26.228Z,100.00
2022-10-29T20:43:55.563Z,100.00
2022-10-29T20:46:25.672Z,100.00
2022-10-29T20:48:53.550Z,100.00
2022-10-29T20:51:22.955Z,100.00
2022-10-29T20:53:51.318Z,100.00
2022-10-29T20:56:19.533Z,100.00
2022-10-29T20:58:48.630Z,100.00
2022-10-29T21:01:18.649Z,100.00
2022-10-29T21:03:50.272Z,100.00
2022-10-29T21:06:18.661Z,100.00
2022-10-29T21:08:47.137Z,100.00
2022-10-29T21:11:16.615Z,100.00
2022-10-29T21:13:44.690Z,100.00
2022-10-29T21:16:18.027Z,100.00
2022-10-29T21:18:49.768Z,100.00
2022-10-29T21:21:19.001Z,100.00
2022-10-29T21:23:47.133Z,100.00
2022-10-29T21:26:17.057Z,100.00
2022-10-29T21:28:45.709Z,100.00
2022-10-29T21:31:13.786Z,100.00
2022-10-29T21:33:43.233Z,100.00
2022-10-29T21:36:14.236Z,100.00
2022-10-29T21:38:42.403Z,100.00
2022-10-29T21:41:10.407Z,100.00
2022-10-29T21:43:39.106Z,100.00
2022-10-29T21:46:07.162Z,100.00
2022-10-29T21:48:35.322Z,100.00
2022-10-29T21:51:05.507Z,100.00
2022-10-29T21:53:34.882Z,100.00
2022-10-29T21:56:05.025Z,100.00
2022-10-29T21:58:33.282Z,100.00
2022-10-29T22:01:06.111Z,100.00
2022-10-29T22:03:34.995Z,100.00
2022-10-29T22:06:04.112Z,100.00
2022-10-29T22:08:31.986Z,100.00
2022-10-29T22:11:01.372Z,100.00
2022-10-29T22:13:29.798Z,100.00
2022-10-29T22:15:58.072Z,100.00
2022-10-29T22:18:26.396Z,100.00
2022-10-29T22:21:07.375Z,100.00
2022-10-29T22:23:35.816Z,100.00
2022-10-29T22:26:05.159Z,100.00
2022-10-29T22:28:33.258Z,100.00
2022-10-29T22:31:02.538Z,100.00
2022-10-29T22:33:30.815Z,100.00
2022-10-29T22:36:06.559Z,100.00
2022-10-29T22:38:34.432Z,100.00
2022-10-29T22:41:07.474Z,100.00
2022-10-29T22:43:35.923Z,100.00
2022-10-29T22:46:05.300Z,100.00
2022-10-29T22:48:33.495Z,100.00
2022-10-29T22:51:03.429Z,100.00
2022-10-29T22:53:31.330Z,100.00
2022-10-29T22:55:59.779Z,100.00
2022-10-29T22:58:29.595Z,100.00
2022-10-29T23:01:05.689Z,100.00
2022-10-29T23:03:34.321Z,100.00
2022-10-29T23:06:03.457Z,100.00
2022-10-29T23:08:32.489Z,100.00
2022-10-29T23:11:05.506Z,100.00
2022-10-29T23:13:35.084Z,100.00
2022-10-29T23:16:02.967Z,100.00
2022-10-29T23:18:30.839Z,100.00
2022-10-29T23:21:00.474Z,100.00
2022-10-29T23:23:28.750Z,100.00
2022-10-29T23:26:00.925Z,100.00
2022-10-29T23:28:29.480Z,100.00
2022-10-29T23:31:00.410Z,100.00
2022-10-29T23:33:29.269Z,100.00
2022-10-29T23:35:57.536Z,100.00
2022-10-29T23:38:25.448Z,100.00
2022-10-29T23:40:53.429Z,100.00
2022-10-29T23:43:21.288Z,100.00
2022-10-29T23:45:49.208Z,100.00
2022-10-29T23:48:18.905Z,100.00
2022-10-29T23:50:47.159Z,100.00
2022-10-29T23:53:15.530Z,100.00
2022-10-29T23:55:43.852Z,100.00
2022-10-29T23:58:12.364Z,100.00
